Time;durP1;ratioP1;P1;durP2;ratioP2;P2;SDS_P1;SDS_P2;PMS_P1;PMS_P2;Temp;Humidity;BMP_temperature;BMP_pressure;BME280_temperature;BME280_humidity;BME280_pressure;Samples;Min_cycle;Max_cycle;Signal;HPM_P1;HPM_P2
2023/09/18 00:00:12;;;;;;;1.13;0.90;;;;;;;24.12;56.17;98761.22;336080;28;5364;-81
2023/09/18 00:00:24;;;;;;;0.95;0.80;;;;;;;24.13;55.84;98762.91;334109;28;17230;-81
2023/09/18 00:00:36;;;;;;;1.10;0.90;;;;;;;24.14;55.61;98769.88;337738;28;4701;-81
2023/09/18 00:00:49;;;;;;;1.00;0.82;;;;;;;24.15;55.59;98766.22;335815;28;5241;-81
2023/09/18 00:01:02;;;;;;;0.70;0.70;;;;;;;24.15;55.49;98766.22;333533;28;18341;-81
2023/09/18 00:01:14;;;;;;;1.05;0.70;;;;;;;24.14;55.84;98764.56;332986;28;9557;-80
2023/09/18 00:01:26;;;;;;;1.50;0.70;;;;;;;24.13;55.29;98761.06;335844;28;5369;-80
2023/09/18 00:01:39;;;;;;;3.40;0.90;;;;;;;24.12;55.72;98766.53;335020;29;4551;-81
2023/09/18 00:01:51;;;;;;;2.70;0.90;;;;;;;24.13;55.87;98760.25;332125;29;18111;-81
2023/09/18 00:02:03;;;;;;;1.95;0.95;;;;;;;24.15;56.04;98766.22;334501;29;5151;-80
2023/09/18 00:02:15;;;;;;;1.35;0.90;;;;;;;24.14;55.84;98764.56;331583;29;18099;-81
2023/09/18 00:02:29;;;;;;;1.00;0.82;;;;;;;24.15;55.86;98766.22;335515;28;4513;-81
2023/09/18 00:02:41;;;;;;;0.90;0.70;;;;;;;24.18;56.11;98765.06;333288;28;18202;-81
2023/09/18 00:02:53;;;;;;;1.05;0.70;;;;;;;24.18;56.03;98763.25;334938;29;4615;-81
2023/09/18 00:03:05;;;;;;;1.10;0.77;;;;;;;24.19;55.73;98756.13;332179;29;17941;-81
2023/09/18 00:03:20;;;;;;;1.42;0.88;;;;;;;24.11;56.15;98760.41;335298;29;4797;-81
2023/09/18 00:03:32;;;;;;;1.35;0.90;;;;;;;24.07;56.36;98763.53;332396;28;18065;-81
2023/09/18 00:03:44;;;;;;;1.20;0.80;;;;;;;24.07;56.19;98756.41;335656;28;5515;-82
2023/09/18 00:03:58;;;;;;;1.00;0.70;;;;;;;24.07;56.71;98759.06;332360;28;17922;-81
2023/09/18 00:04:10;;;;;;;0.80;0.77;;;;;;;24.07;56.60;98758.22;333573;28;11035;-80
2023/09/18 00:04:22;;;;;;;0.77;0.77;;;;;;;24.09;56.50;98753.59;336679;28;4561;-81
2023/09/18 00:04:34;;;;;;;1.00;0.90;;;;;;;24.11;55.74;98751.59;334735;29;5637;-81
2023/09/18 00:04:46;;;;;;;1.02;0.90;;;;;;;24.09;56.07;98756.25;331972;29;18473;-81
2023/09/18 00:04:58;;;;;;;1.08;0.80;;;;;;;24.08;56.41;98757.22;335072;28;5091;-81
2023/09/18 00:05:11;;;;;;;1.05;0.70;;;;;;;23.98;56.63;98752.03;332848;29;18372;-80
2023/09/18 00:05:23;;;;;;;0.95;0.60;;;;;;;23.97;56.65;98746.91;335501;28;4745;-81
2023/09/18 00:05:35;;;;;;;0.95;0.70;;;;;;;23.96;56.28;98754.00;332025;29;10181;-80
2023/09/18 00:05:50;;;;;;;1.25;0.80;;;;;;;23.98;56.51;98751.19;335162;29;5562;-81
2023/09/18 00:06:02;;;;;;;1.70;0.90;;;;;;;24.00;56.53;98751.88;332731;28;18243;-81
2023/09/18 00:06:14;;;;;;;1.30;0.80;;;;;;;24.03;56.15;98751.56;336041;28;5257;-81
2023/09/18 00:06:26;;;;;;;1.13;0.80;;;;;;;24.06;56.19;98753.91;333357;28;18506;-81
2023/09/18 00:06:38;;;;;;;0.95;0.85;;;;;;;24.08;56.12;98751.91;336813;28;4488;-81
2023/09/18 00:06:50;;;;;;;1.33;0.85;;;;;;;24.10;56.36;98742.78;331192;28;4511;-81
2023/09/18 00:07:02;;;;;;;1.52;0.93;;;;;;;24.12;56.38;98750.59;332637;28;18667;-81
2023/09/18 00:07:14;;;;;;;1.23;0.90;;;;;;;24.13;56.33;98753.09;336525;28;4609;-81
2023/09/18 00:07:26;;;;;;;1.13;0.80;;;;;;;24.15;56.28;98744.13;334284;28;5055;-81
2023/09/18 00:07:38;;;;;;;0.80;0.70;;;;;;;24.17;56.10;98756.28;337424;28;4513;-81
2023/09/18 00:07:50;;;;;;;0.80;0.80;;;;;;;24.19;55.87;98743.69;337684;28;4647;-81
2023/09/18 00:08:03;;;;;;;0.80;0.77;;;;;;;24.21;56.00;98749.66;334335;28;17917;-81
2023/09/18 00:08:16;;;;;;;0.85;0.80;;;;;;;24.23;55.87;98747.69;337610;28;4500;-82
2023/09/18 00:08:28;;;;;;;1.10;0.95;;;;;;;24.26;55.96;98755.31;334988;28;17654;-81
2023/09/18 00:08:40;;;;;;;1.35;1.00;;;;;;;24.27;55.90;98757.00;337305;28;4644;-82
2023/09/18 00:08:53;;;;;;;1.33;1.00;;;;;;;24.26;55.92;98755.31;334065;28;11815;-80
2023/09/18 00:09:11;;;;;;;1.40;0.80;;;;;;;24.24;55.79;98751.97;336735;28;4722;-81
2023/09/18 00:09:23;;;;;;;1.15;0.80;;;;;;;24.21;55.27;98754.97;333169;28;17697;-81
2023/09/18 00:09:35;;;;;;;1.40;0.80;;;;;;;24.22;55.58;98751.31;337712;28;4860;-81
2023/09/18 00:09:48;;;;;;;2.90;0.90;;;;;;;24.26;55.65;98757.97;337544;28;5575;-81
2023/09/18 00:10:00;;;;;;;2.65;0.80;;;;;;;24.26;55.88;98752.66;329262;28;19518;-81
2023/09/18 00:10:13;;;;;;;1.10;0.70;;;;;;;24.28;55.94;98755.97;337434;28;5388;-81
2023/09/18 00:10:26;;;;;;;1.30;0.80;;;;;;;24.30;55.65;98755.81;335100;28;18402;-82
2023/09/18 00:10:38;;;;;;;1.15;0.70;;;;;;;24.29;55.57;98756.84;334660;28;12098;-80
2023/09/18 00:10:54;;;;;;;1.13;0.75;;;;;;;24.28;55.59;98761.28;335340;28;5340;-80
2023/09/18 00:11:07;;;;;;;0.93;0.70;;;;;;;24.27;55.64;98751.69;331895;28;17859;-81
2023/09/18 00:11:19;;;;;;;0.70;0.70;;;;;;;24.28;55.51;98755.97;333168;28;18239;-80
2023/09/18 00:11:31;;;;;;;0.88;0.80;;;;;;;24.29;55.49;98757.66;337281;28;5050;-80
2023/09/18 00:11:43;;;;;;;0.93;0.82;;;;;;;24.31;55.76;98754.84;336221;29;5114;-81
2023/09/18 00:11:55;;;;;;;1.08;0.90;;;;;;;24.32;55.55;98756.50;330447;29;17834;-82
2023/09/18 00:12:09;;;;;;;1.13;0.90;;;;;;;24.33;55.32;98753.69;333307;29;4576;-81
2023/09/18 00:12:21;;;;;;;0.93;0.80;;;;;;;24.32;55.78;98756.50;331791;29;17702;-82
2023/09/18 00:12:33;;;;;;;0.85;0.65;;;;;;;24.33;55.63;98764.31;333062;29;5386;-81
2023/09/18 00:12:45;;;;;;;0.90;0.70;;;;;;;24.33;55.39;98753.69;331497;29;18309;-81
2023/09/18 00:12:57;;;;;;;0.80;0.70;;;;;;;24.35;55.64;98760.66;336022;28;4493;-81
2023/09/18 00:13:09;;;;;;;0.73;0.70;;;;;;;24.35;55.68;98755.34;331419;28;5044;-81
2023/09/18 00:13:22;;;;;;;0.70;0.70;;;;;;;24.36;55.55;98757.00;333464;28;18207;-81
2023/09/18 00:13:34;;;;;;;0.77;0.77;;;;;;;24.37;55.49;98759.53;335332;29;4542;-81
2023/09/18 00:13:46;;;;;;;0.70;0.70;;;;;;;24.36;55.47;98754.38;332746;28;18470;-80
2023/09/18 00:13:58;;;;;;;0.70;0.68;;;;;;;24.37;55.50;98758.66;336612;28;5548;-81
2023/09/18 00:14:10;;;;;;;0.77;0.70;;;;;;;24.38;55.51;98760.34;332656;28;18502;-81
2023/09/18 00:14:23;;;;;;;0.80;0.70;;;;;;;24.38;55.23;98755.03;336970;28;4622;-81
2023/09/18 00:14:36;;;;;;;0.80;0.70;;;;;;;24.37;55.26;98758.66;332738;28;5343;-80
2023/09/18 00:14:49;;;;;;;0.75;0.70;;;;;;;24.37;55.47;98756.00;337960;28;6003;-81
2023/09/18 00:15:02;;;;;;;0.93;0.85;;;;;;;24.37;55.51;98759.53;334135;28;18093;-81
2023/09/18 00:15:14;;;;;;;0.80;0.77;;;;;;;24.38;55.79;98760.34;336327;28;4711;-81
2023/09/18 00:15:26;;;;;;;0.82;0.70;;;;;;;24.38;55.74;98757.69;335260;28;18005;-81
2023/09/18 00:15:40;;;;;;;1.10;0.70;;;;;;;24.38;55.64;98755.03;337517;28;4483;-81
2023/09/18 00:15:55;;;;;;;1.30;0.80;;;;;;;24.37;55.61;98759.53;334503;28;18127;-80
2023/09/18 00:16:07;;;;;;;0.80;0.77;;;;;;;24.38;55.90;98760.34;335665;28;18454;-81
2023/09/18 00:16:19;;;;;;;0.80;0.77;;;;;;;24.38;56.04;98755.03;337511;28;4534;-81
2023/09/18 00:16:32;;;;;;;1.00;0.90;;;;;;;24.39;55.74;98760.19;334971;28;17993;-81
2023/09/18 00:17:00;;;;;;;1.20;1.00;;;;;;;24.41;55.87;98765.31;330460;28;17546;-81
2023/09/18 00:17:13;;;;;;;1.23;0.88;;;;;;;24.41;56.02;98760.88;334723;28;17874;-80
2023/09/18 00:17:25;;;;;;;1.45;0.90;;;;;;;24.43;55.91;98763.38;337709;28;5248;-81
2023/09/18 00:17:37;;;;;;;1.50;0.90;;;;;;;24.44;55.96;98759.69;334562;28;11987;-81
2023/09/18 00:17:49;;;;;;;1.40;1.00;;;;;;;24.44;55.99;98754.38;334721;28;17347;-81
2023/09/18 00:18:02;;;;;;;1.08;0.80;;;;;;;24.45;56.28;98761.38;336300;28;5156;-81
2023/09/18 00:18:15;;;;;;;0.90;0.70;;;;;;;24.46;55.94;98763.03;333418;28;18025;-81
2023/09/18 00:18:27;;;;;;;0.88;0.70;;;;;;;24.45;56.03;98751.56;334074;28;16456;-80
2023/09/18 00:18:40;;;;;;;0.80;0.70;;;;;;;24.45;56.06;98756.06;337751;28;4663;-81
2023/09/18 00:18:52;;;;;;;0.70;0.70;;;;;;;24.45;56.10;98750.75;334798;28;18209;-80
2023/09/18 00:19:07;;;;;;;1.15;0.88;;;;;;;24.45;56.03;98759.56;338107;28;4548;-80
2023/09/18 00:19:19;;;;;;;1.58;1.17;;;;;;;24.44;55.81;98757.88;333233;28;18034;-81
2023/09/18 00:19:32;;;;;;;2.40;1.10;;;;;;;24.44;55.83;98754.38;337838;28;4521;-80
2023/09/18 00:19:45;;;;;;;1.90;0.80;;;;;;;24.42;55.86;98751.88;335303;28;18469;-81
2023/09/18 00:19:57;;;;;;;1.00;0.90;;;;;;;24.43;55.74;98753.56;334496;28;10778;-80
2023/09/18 00:20:09;;;;;;;1.20;1.10;;;;;;;24.44;55.64;98755.22;337585;28;5046;-81
2023/09/18 00:20:26;;;;;;;0.95;0.90;;;;;;;24.45;55.58;98753.41;338658;28;5416;-80
2023/09/18 00:20:38;;;;;;;1.20;0.80;;;;;;;24.44;55.73;98762.34;330634;28;17926;-80
2023/09/18 00:20:51;;;;;;;1.33;0.88;;;;;;;24.46;55.62;98755.06;337565;28;4491;-81
2023/09/18 00:21:04;;;;;;;1.00;0.80;;;;;;;24.44;55.78;98760.53;333576;28;17991;-80
2023/09/18 00:21:16;;;;;;;1.30;0.85;;;;;;;24.44;55.54;98755.22;336311;28;5032;-81
2023/09/18 00:21:30;;;;;;;1.30;0.80;;;;;;;24.46;55.45;98758.53;334754;28;18088;-80
2023/09/18 00:21:42;;;;;;;1.52;0.90;;;;;;;24.47;55.63;98754.91;337495;28;4549;-81
2023/09/18 00:21:56;;;;;;;1.23;0.80;;;;;;;24.50;55.62;98756.44;333823;28;18071;-80
2023/09/18 00:22:08;;;;;;;1.60;0.70;;;;;;;24.50;55.76;98753.78;336457;28;4511;-80
2023/09/18 00:22:20;;;;;;;1.60;0.75;;;;;;;24.51;55.54;98750.16;330465;28;4653;-81
2023/09/18 00:22:33;;;;;;;1.45;0.90;;;;;;;24.49;55.91;98752.09;336286;28;5395;-80
2023/09/18 00:22:46;;;;;;;1.15;0.98;;;;;;;24.47;55.59;98749.59;333571;28;19174;-80
2023/09/18 00:22:58;;;;;;;1.20;0.90;;;;;;;24.46;55.64;98741.78;336462;28;5085;-81
2023/09/18 00:23:10;;;;;;;1.25;0.95;;;;;;;24.46;55.62;98752.41;334610;28;18217;-82
2023/09/18 00:23:22;;;;;;;1.10;1.00;;;;;;;24.46;55.90;98747.09;337624;28;5388;-81
2023/09/18 00:23:35;;;;;;;1.10;1.00;;;;;;;24.46;55.93;98749.75;336186;28;10976;-81
2023/09/18 00:23:47;;;;;;;2.30;0.88;;;;;;;24.44;55.71;98749.91;328718;28;18399;-81
2023/09/18 00:24:00;;;;;;;2.88;0.90;;;;;;;24.46;55.84;98747.09;337163;28;4698;-81
2023/09/18 00:24:12;;;;;;;2.20;1.00;;;;;;;24.45;55.59;98748.94;334809;28;19142;-81
2023/09/18 00:24:25;;;;;;;1.20;0.90;;;;;;;24.47;55.67;98748.78;337581;28;4690;-81
2023/09/18 00:24:37;;;;;;;0.90;0.80;;;;;;;24.47;55.27;98744.28;334041;28;19385;-81
2023/09/18 00:24:49;;;;;;;0.95;0.77;;;;;;;24.49;55.30;98749.44;337712;28;4686;-81
2023/09/18 00:25:02;;;;;;;0.85;0.70;;;;;;;24.50;55.35;98748.47;334784;28;18014;-81
2023/09/18 00:25:15;;;;;;;1.38;0.77;;;;;;;24.50;55.25;98749.28;337870;28;5178;-81
2023/09/18 00:25:27;;;;;;;1.60;0.82;;;;;;;24.52;55.05;98742.00;329747;28;16228;-80
2023/09/18 00:25:42;;;;;;;1.27;0.75;;;;;;;24.52;55.14;98746.47;337290;28;4545;-80
2023/09/18 00:25:54;;;;;;;0.63;0.63;;;;;;;24.54;54.94;98744.50;335337;28;17776;-80
2023/09/18 00:26:06;;;;;;;0.82;0.82;;;;;;;24.55;54.80;98740.00;334938;28;10382;-80
2023/09/18 00:26:18;;;;;;;1.27;0.95;;;;;;;24.55;54.89;98746.16;337078;28;5463;-81
2023/09/18 00:26:30;;;;;;;2.60;1.00;;;;;;;24.57;54.86;98741.53;336793;28;4691;-81
2023/09/18 00:26:42;;;;;;;2.72;1.00;;;;;;;24.59;54.99;98752.81;333564;28;18291;-80
2023/09/18 00:26:55;;;;;;;2.42;0.90;;;;;;;24.61;54.74;98745.53;335256;29;5252;-80
2023/09/18 00:27:07;;;;;;;1.45;0.70;;;;;;;24.64;54.93;98744.34;329026;29;5661;-80
2023/09/18 00:27:19;;;;;;;1.20;0.73;;;;;;;24.63;55.41;98743.53;334854;29;5114;-80
2023/09/18 00:27:32;;;;;;;0.90;0.75;;;;;;;24.65;54.73;98746.00;335676;29;4564;-81
2023/09/18 00:27:44;;;;;;;1.05;0.80;;;;;;;24.66;54.80;98735.22;333039;28;18664;-80
2023/09/18 00:27:56;;;;;;;0.95;0.82;;;;;;;24.68;54.87;98741.19;335988;29;5369;-81
2023/09/18 00:28:08;;;;;;;0.80;0.75;;;;;;;24.68;54.78;98741.19;333318;29;19879;-81
2023/09/18 00:28:20;;;;;;;0.85;0.70;;;;;;;24.70;54.48;98741.88;336082;28;5108;-81
2023/09/18 00:28:32;;;;;;;1.00;0.70;;;;;;;24.71;54.60;98743.53;334027;28;19940;-80
2023/09/18 00:28:44;;;;;;;1.00;0.73;;;;;;;24.71;54.65;98740.06;336256;28;4733;-81
2023/09/18 00:28:56;;;;;;;0.70;0.70;;;;;;;24.72;54.43;98741.72;335282;29;4675;-81
2023/09/18 00:29:08;;;;;;;0.75;0.73;;;;;;;24.72;54.42;98731.91;334087;28;18519;-81
2023/09/18 00:29:20;;;;;;;1.77;0.77;;;;;;;24.74;54.64;98736.25;336539;28;4902;-81
2023/09/18 00:29:33;;;;;;;1.80;0.77;;;;;;;24.74;54.30;98730.94;334357;28;14888;-80
2023/09/18 00:29:45;;;;;;;1.42;0.70;;;;;;;24.74;54.58;98728.28;337535;28;5112;-81
2023/09/18 00:29:57;;;;;;;2.67;0.90;;;;;;;24.74;54.75;98736.25;335760;28;4613;-81
2023/09/18 00:30:09;;;;;;;3.00;1.00;;;;;;;24.71;54.65;98735.56;333555;28;18434;-80
2023/09/18 00:30:21;;;;;;;2.17;1.07;;;;;;;24.72;54.79;98736.41;336353;28;4496;-81
2023/09/18 00:30:33;;;;;;;0.80;0.80;;;;;;;24.72;54.84;98731.91;332184;28;19885;-80
2023/09/18 00:30:49;;;;;;;1.00;0.88;;;;;;;24.74;54.77;98736.25;334283;28;5278;-81
2023/09/18 00:31:02;;;;;;;1.10;0.80;;;;;;;24.72;54.66;98734.56;332639;29;17725;-81
2023/09/18 00:31:14;;;;;;;0.98;0.70;;;;;;;24.74;54.79;98728.28;333683;28;19149;-80
2023/09/18 00:31:26;;;;;;;0.93;0.80;;;;;;;24.73;54.93;98732.75;334908;28;17217;-81
2023/09/18 00:31:38;;;;;;;1.70;0.93;;;;;;;24.74;54.71;98723.78;336631;28;5215;-81
2023/09/18 00:31:50;;;;;;;1.73;0.82;;;;;;;24.75;54.92;98732.56;333636;28;18028;-81
2023/09/18 00:32:02;;;;;;;1.42;0.90;;;;;;;24.76;54.67;98728.94;335518;28;4539;-81
2023/09/18 00:32:14;;;;;;;1.15;0.90;;;;;;;24.75;54.14;98733.44;333844;28;18467;-80
2023/09/18 00:32:27;;;;;;;1.08;0.90;;;;;;;24.74;54.24;98734.41;337572;28;4710;-80
2023/09/18 00:32:40;;;;;;;0.90;0.80;;;;;;;24.73;54.57;98732.75;335292;28;4555;-80
2023/09/18 00:32:52;;;;;;;0.98;0.80;;;;;;;24.72;54.53;98731.09;337631;28;4524;-80
2023/09/18 00:33:04;;;;;;;1.88;0.90;;;;;;;24.74;54.43;98730.94;336174;28;4517;-81
2023/09/18 00:33:19;;;;;;;1.75;0.80;;;;;;;24.75;54.55;98724.59;333524;28;18732;-80
2023/09/18 00:33:31;;;;;;;1.10;0.90;;;;;;;24.72;54.40;98726.59;331129;28;5126;-80
2023/09/18 00:33:43;;;;;;;1.20;1.00;;;;;;;24.72;54.24;98726.59;336694;28;4559;-81
2023/09/18 00:33:55;;;;;;;1.00;0.90;;;;;;;24.74;54.30;98725.63;333582;28;13778;-80
2023/09/18 00:34:07;;;;;;;0.90;0.80;;;;;;;24.75;54.20;98725.47;336303;28;5028;-81
2023/09/18 00:34:19;;;;;;;1.00;0.82;;;;;;;24.76;54.45;98720.97;336206;29;4723;-80
2023/09/18 00:34:34;;;;;;;1.00;0.90;;;;;;;24.76;54.51;98721.78;334327;28;18787;-80
2023/09/18 00:34:46;;;;;;;0.80;0.80;;;;;;;24.78;54.40;98719.78;334788;28;18969;-80
2023/09/18 00:34:58;;;;;;;0.80;0.80;;;;;;;24.79;54.52;98720.63;336001;28;4552;-81
2023/09/18 00:35:10;;;;;;;0.80;0.70;;;;;;;24.80;54.55;98722.31;332573;28;16130;-80
2023/09/18 00:35:23;;;;;;;0.80;0.65;;;;;;;24.81;54.53;98722.16;335010;28;4668;-81
2023/09/18 00:35:35;;;;;;;0.77;0.65;;;;;;;24.82;54.86;98717.66;332479;28;18308;-80
2023/09/18 00:35:50;;;;;;;0.88;0.80;;;;;;;24.83;54.86;98727.28;335663;28;4481;-80
2023/09/18 00:36:02;;;;;;;1.20;0.93;;;;;;;24.81;54.50;98719.47;328670;28;18059;-80
2023/09/18 00:36:14;;;;;;;1.05;0.85;;;;;;;24.79;54.82;98725.94;336505;28;5103;-81
2023/09/18 00:36:26;;;;;;;0.70;0.70;;;;;;;24.79;54.96;98715.31;329839;28;18148;-80
2023/09/18 00:36:38;;;;;;;1.25;0.70;;;;;;;24.79;55.33;98721.47;337483;28;5296;-80
2023/09/18 00:36:50;;;;;;;1.30;0.63;;;;;;;24.79;55.04;98720.63;337709;28;4701;-81
2023/09/18 00:37:03;;;;;;;1.13;0.60;;;;;;;24.78;55.17;98719.78;333919;28;18190;-81
2023/09/18 00:37:16;;;;;;;2.00;0.60;;;;;;;24.80;54.94;98716.97;336513;28;5060;-81
2023/09/18 00:37:29;;;;;;;2.55;0.75;;;;;;;24.79;55.43;98716.16;335146;28;17642;-80
2023/09/18 00:37:42;;;;;;;2.28;0.75;;;;;;;24.79;54.92;98720.63;333121;28;4764;-81
2023/09/18 00:37:55;;;;;;;1.60;0.63;;;;;;;24.79;54.97;98718.81;334948;28;18195;-81
2023/09/18 00:38:07;;;;;;;0.77;0.70;;;;;;;24.79;54.91;98717.97;333878;28;7852;-80
2023/09/18 00:38:19;;;;;;;0.85;0.75;;;;;;;24.78;54.78;98719.78;336863;28;6309;-81
2023/09/18 00:38:33;;;;;;;1.02;0.90;;;;;;;24.77;54.86;98722.63;335084;28;18431;-80
2023/09/18 00:38:46;;;;;;;1.35;0.90;;;;;;;24.77;54.71;98722.63;338230;28;4871;-80
2023/09/18 00:38:58;;;;;;;1.20;0.80;;;;;;;24.75;55.14;98719.28;333829;28;18179;-80
2023/09/18 00:39:11;;;;;;;1.80;0.80;;;;;;;24.74;55.03;98720.28;337740;28;4620;-81
2023/09/18 00:39:23;;;;;;;2.00;0.80;;;;;;;24.71;55.38;98719.63;336137;28;4689;-80
2023/09/18 00:39:34;;;;;;;2.10;0.80;;;;;;;24.70;55.22;98720.59;336356;28;17424;-80
2023/09/18 00:39:46;;;;;;;1.40;1.00;;;;;;;24.70;55.40;98712.63;337864;28;4833;-81
2023/09/18 00:39:59;;;;;;;1.08;0.90;;;;;;;24.70;55.22;98717.94;334830;28;12376;-80
2023/09/18 00:40:11;;;;;;;0.82;0.68;;;;;;;24.71;55.51;98719.63;337461;28;4568;-81
2023/09/18 00:40:24;;;;;;;0.68;0.68;;;;;;;24.72;55.31;98713.31;334743;28;17806;-80
2023/09/18 00:40:36;;;;;;;1.08;0.77;;;;;;;24.71;55.32;98716.97;337480;28;5288;-80
2023/09/18 00:40:48;;;;;;;1.33;0.70;;;;;;;24.72;55.27;98715.97;337775;28;4522;-81
2023/09/18 00:41:00;;;;;;;1.10;0.68;;;;;;;24.70;55.32;98715.28;333768;28;17538;-80
2023/09/18 00:41:12;;;;;;;1.00;0.70;;;;;;;24.69;55.00;98708.34;336677;28;5387;-81
2023/09/18 00:41:24;;;;;;;0.90;0.77;;;;;;;24.71;55.18;98708.19;334113;28;13446;-80
2023/09/18 00:41:37;;;;;;;0.88;0.75;;;;;;;24.69;55.26;98711.00;337781;28;5342;-81
2023/09/18 00:41:53;;;;;;;0.80;0.68;;;;;;;24.70;55.72;98702.00;335889;28;10869;-80
2023/09/18 00:42:05;;;;;;;0.88;0.68;;;;;;;24.72;55.39;98708.00;336401;28;17420;-80
2023/09/18 00:42:18;;;;;;;1.40;0.80;;;;;;;24.75;55.28;98700.69;336803;28;4514;-80
2023/09/18 00:42:30;;;;;;;1.42;0.90;;;;;;;24.76;54.85;98699.69;334841;28;12069;-80
2023/09/18 00:42:42;;;;;;;2.03;0.90;;;;;;;24.76;54.42;98697.03;337985;28;5363;-81
2023/09/18 00:42:54;;;;;;;1.70;0.85;;;;;;;24.75;54.74;98708.66;337240;28;4825;-81
2023/09/18 00:43:06;;;;;;;0.93;0.82;;;;;;;24.74;54.83;98707.00;334261;28;19339;-80
2023/09/18 00:43:20;;;;;;;0.95;0.80;;;;;;;24.70;55.25;98702.00;337353;28;4685;-81
2023/09/18 00:43:32;;;;;;;1.20;0.82;;;;;;;24.68;55.17;98704.00;333123;28;18712;-81
2023/09/18 00:43:44;;;;;;;1.20;0.90;;;;;;;24.68;54.88;98703.19;336316;28;5313;-81
2023/09/18 00:43:56;;;;;;;2.28;0.90;;;;;;;24.69;55.00;98704.84;333238;28;19251;-81
2023/09/18 00:44:33;;;;;;;0.82;0.55;;;;;;;24.67;55.09;98697.03;343133;27;20392;-66
2023/09/18 00:44:45;;;;;;;0.90;0.70;;;;;;;24.65;55.17;98704.34;341596;27;4545;-66
2023/09/18 00:44:57;;;;;;;0.90;0.73;;;;;;;24.63;55.10;98695.69;342906;28;4625;-66
2023/09/18 00:45:09;;;;;;;1.00;0.90;;;;;;;24.62;54.82;98699.34;346222;28;5649;-66
2023/09/18 00:45:21;;;;;;;1.10;1.00;;;;;;;24.62;55.05;98693.19;340762;28;5179;-66
2023/09/18 00:45:38;;;;;;;1.20;0.85;;;;;;;24.62;55.13;98698.50;343699;28;17306;-65
2023/09/18 00:45:50;;;;;;;1.00;0.70;;;;;;;24.62;55.37;98696.69;342139;28;17217;-66
2023/09/18 00:46:02;;;;;;;0.85;0.80;;;;;;;24.64;55.19;98691.22;342407;28;18174;-66
2023/09/18 00:46:14;;;;;;;0.70;0.70;;;;;;;24.65;55.01;98691.06;346890;28;4451;-66
2023/09/18 00:46:27;;;;;;;0.80;0.70;;;;;;;24.65;55.13;98688.41;342055;28;17952;-67
2023/09/18 00:46:39;;;;;;;0.98;0.80;;;;;;;24.66;54.78;98694.53;344545;28;4657;-66
2023/09/18 00:46:51;;;;;;;1.00;0.80;;;;;;;24.67;54.76;98691.72;339835;28;5630;-66
2023/09/18 00:47:03;;;;;;;1.10;0.93;;;;;;;24.68;54.60;98693.38;344746;28;4648;-66
2023/09/18 00:47:15;;;;;;;1.02;0.90;;;;;;;24.66;54.65;98690.03;345606;28;4683;-66
2023/09/18 00:47:28;;;;;;;2.80;0.90;;;;;;;24.65;54.85;98687.53;342324;28;16985;-67
2023/09/18 00:47:40;;;;;;;2.67;0.90;;;;;;;24.63;54.82;98687.72;345124;28;4651;-66
2023/09/18 00:47:54;;;;;;;0.93;0.67;;;;;;;24.61;54.65;98692.38;342106;28;18004;-67
2023/09/18 00:48:06;;;;;;;1.15;0.77;;;;;;;24.61;54.73;98692.38;345774;28;10691;-67
2023/09/18 00:48:19;;;;;;;1.15;0.82;;;;;;;24.63;54.95;98693.03;342103;28;17924;-67
2023/09/18 00:48:31;;;;;;;1.00;0.80;;;;;;;24.62;54.61;98686.06;343748;28;4655;-67
2023/09/18 00:48:43;;;;;;;2.60;0.82;;;;;;;24.63;54.54;98690.38;340007;28;19142;-67
2023/09/18 00:48:55;;;;;;;2.60;0.88;;;;;;;24.63;54.45;98695.69;345404;28;4625;-67
2023/09/18 00:49:07;;;;;;;0.90;0.80;;;;;;;24.62;54.58;98688.72;341847;28;17582;-67
2023/09/18 00:49:22;;;;;;;0.98;0.88;;;;;;;24.63;54.95;98690.38;345811;28;4637;-66
2023/09/18 00:49:35;;;;;;;1.40;0.90;;;;;;;24.64;54.94;98686.72;342865;28;17915;-66
2023/09/18 00:49:49;;;;;;;1.40;0.90;;;;;;;24.64;54.60;98686.72;345620;28;4643;-67
2023/09/18 00:50:01;;;;;;;0.85;0.80;;;;;;;24.65;54.68;98684.88;338473;28;17858;-67
2023/09/18 00:50:14;;;;;;;0.85;0.80;;;;;;;24.63;54.83;98684.22;344360;28;16864;-66
2023/09/18 00:50:26;;;;;;;0.90;0.80;;;;;;;24.61;55.04;98681.75;344446;28;5426;-66
2023/09/18 00:50:39;;;;;;;1.55;0.80;;;;;;;24.60;55.11;98684.56;342816;28;18036;-66
2023/09/18 00:50:52;;;;;;;1.70;0.90;;;;;;;24.59;55.03;98686.41;343996;28;4607;-67
2023/09/18 00:51:04;;;;;;;1.15;0.82;;;;;;;24.60;55.26;98687.22;342434;28;17949;-66
2023/09/18 00:51:16;;;;;;;0.98;0.70;;;;;;;24.61;55.29;98687.06;346374;28;4591;-66
2023/09/18 00:51:28;;;;;;;2.08;0.70;;;;;;;24.62;55.25;98683.41;342361;28;11284;-67
2023/09/18 00:51:40;;;;;;;2.30;0.80;;;;;;;24.64;55.12;98685.91;345586;28;4587;-66
2023/09/18 00:51:52;;;;;;;2.40;0.90;;;;;;;24.63;54.94;98690.38;344919;28;5446;-66
2023/09/18 00:52:06;;;;;;;1.10;0.80;;;;;;;24.64;55.17;98685.91;342937;28;18392;-67
2023/09/18 00:52:21;;;;;;;1.25;0.80;;;;;;;24.63;54.94;98684.22;343401;28;18154;-67
2023/09/18 00:52:34;;;;;;;1.40;0.80;;;;;;;24.60;54.59;98690.69;344762;28;15514;-67
2023/09/18 00:52:46;;;;;;;1.17;0.80;;;;;;;24.59;54.68;98689.06;341603;28;18003;-66
2023/09/18 00:52:59;;;;;;;0.80;0.80;;;;;;;24.58;55.18;98684.72;344408;28;5204;-66
2023/09/18 00:53:15;;;;;;;1.10;0.90;;;;;;;24.58;55.41;98692.69;343736;28;18535;-66
2023/09/18 00:53:28;;;;;;;0.90;0.80;;;;;;;24.59;55.18;98694.38;341834;28;17143;-66
2023/09/18 00:53:43;;;;;;;0.73;0.73;;;;;;;24.61;55.05;98694.19;341172;28;18340;-67
2023/09/18 00:53:55;;;;;;;0.77;0.70;;;;;;;24.62;54.82;98688.72;342452;28;17130;-67
2023/09/18 00:54:09;;;;;;;0.73;0.60;;;;;;;24.63;54.79;98685.06;345944;28;5114;-67
2023/09/18 00:54:22;;;;;;;0.82;0.65;;;;;;;24.63;54.79;98684.22;342779;28;18400;-66
2023/09/18 00:54:36;;;;;;;0.80;0.70;;;;;;;24.60;55.13;98685.38;339456;28;4721;-66
2023/09/18 00:54:48;;;;;;;1.10;0.80;;;;;;;24.59;55.13;98689.06;341675;28;17896;-66
2023/09/18 00:55:01;;;;;;;1.10;0.80;;;;;;;24.57;55.43;98688.38;341846;28;12014;-67
2023/09/18 00:55:13;;;;;;;1.15;0.80;;;;;;;24.55;55.37;98682.41;345559;28;4779;-67
2023/09/18 00:55:27;;;;;;;0.82;0.65;;;;;;;24.55;55.09;98689.53;342509;28;18475;-67
2023/09/18 00:55:39;;;;;;;0.90;0.70;;;;;;;24.54;55.24;98691.34;346235;28;4636;-66
2023/09/18 00:55:55;;;;;;;0.88;0.75;;;;;;;24.52;55.53;98688.03;344128;28;18268;-67
2023/09/18 00:56:07;;;;;;;1.20;0.90;;;;;;;24.49;55.48;98688.34;343723;28;18074;-66
2023/09/18 00:56:20;;;;;;;1.17;0.93;;;;;;;24.45;55.90;98687.00;345771;28;4630;-67
2023/09/18 00:56:35;;;;;;;1.65;0.80;;;;;;;24.45;55.97;98687.00;341124;28;18125;-66
2023/09/18 00:56:48;;;;;;;1.52;0.75;;;;;;;24.47;56.15;98685.00;341346;28;18177;-66
2023/09/18 00:57:00;;;;;;;1.40;0.80;;;;;;;24.48;56.07;98686.66;344164;28;4735;-67
2023/09/18 00:57:12;;;;;;;0.80;0.80;;;;;;;24.50;56.12;98687.38;342698;28;17907;-66
2023/09/18 00:57:24;;;;;;;1.50;0.80;;;;;;;24.50;56.01;98680.22;339470;28;5893;-67
2023/09/18 00:57:37;;;;;;;1.50;0.80;;;;;;;24.51;55.95;98687.22;340990;28;18421;-66
2023/09/18 00:57:49;;;;;;;0.75;0.70;;;;;;;24.51;55.93;98683.72;343985;28;4628;-67
2023/09/18 00:58:02;;;;;;;0.70;0.60;;;;;;;24.52;55.81;98688.03;340603;28;18166;-66
2023/09/18 00:58:15;;;;;;;0.82;0.70;;;;;;;24.53;55.84;98687.06;344785;28;4899;-67
2023/09/18 00:58:27;;;;;;;1.00;0.90;;;;;;;24.54;55.91;98680.72;341105;28;18108;-66
2023/09/18 00:58:39;;;;;;;1.10;1.00;;;;;;;24.55;55.53;98682.41;344014;28;4521;-67
2023/09/18 00:58:52;;;;;;;1.05;0.80;;;;;;;24.57;55.53;98677.75;344864;27;5121;-67
2023/09/18 00:59:04;;;;;;;1.70;0.70;;;;;;;24.58;55.63;98676.75;335762;28;17811;-67
2023/09/18 00:59:16;;;;;;;1.55;0.60;;;;;;;24.58;55.52;98686.56;345266;28;5226;-66
2023/09/18 00:59:28;;;;;;;1.40;0.57;;;;;;;24.58;55.52;98676.75;341905;28;18034;-67
2023/09/18 00:59:41;;;;;;;0.85;0.70;;;;;;;24.58;55.34;98684.72;345392;28;5179;-67
2023/09/18 00:59:53;;;;;;;0.80;0.75;;;;;;;24.59;55.54;98683.75;338798;27;18349;-67
2023/09/18 01:00:06;;;;;;;1.80;0.80;;;;;;;24.57;55.51;98680.41;344825;27;4696;-67
2023/09/18 01:00:18;;;;;;;2.00;0.73;;;;;;;24.60;55.57;98688.03;342593;28;17645;-67
2023/09/18 01:00:30;;;;;;;1.42;0.70;;;;;;;24.60;55.40;98684.56;344446;27;10178;-66
2023/09/18 01:00:44;;;;;;;1.33;0.70;;;;;;;24.60;55.54;98679.25;345632;27;4645;-66
2023/09/18 01:00:56;;;;;;;1.20;0.90;;;;;;;24.60;55.21;98685.38;341327;28;18211;-67
2023/09/18 01:01:10;;;;;;;1.42;1.00;;;;;;;24.59;55.42;98678.44;343157;28;16413;-67